createdAt,value
2019-01-23T00:00:31.498Z,90.20
2019-01-23T00:02:59.887Z,90.30
2019-01-23T00:05:28.555Z,90.50
2019-01-23T00:07:57.723Z,90.10
2019-01-23T00:10:26.090Z,90.30
2019-01-23T00:12:54.860Z,90.40
2019-01-23T00:15:23.262Z,90.30
2019-01-23T00:17:51.635Z,90.10
2019-01-23T00:20:20.019Z,90.40
2019-01-23T00:22:48.423Z,90.40
2019-01-23T00:25:17.979Z,90.00
2019-01-23T00:27:46.358Z,90.20
2019-01-23T00:30:16.791Z,90.40
2019-01-23T00:32:45.167Z,90.40
2019-01-23T00:35:13.539Z,90.30
2019-01-23T00:37:41.961Z,90.40
2019-01-23T00:40:13.075Z,90.40
2019-01-23T00:42:41.801Z,90.20
2019-01-23T00:45:15.144Z,90.10
2019-01-23T00:47:43.867Z,90.40
2019-01-23T00:50:14.183Z,90.50
2019-01-23T00:52:43.250Z,90.20
2019-01-23T00:55:16.783Z,89.80
2019-01-23T00:57:45.158Z,89.10
2019-01-23T01:00:19.527Z,89.20
2019-01-23T01:02:47.894Z,89.80
2019-01-23T01:05:16.551Z,89.10
2019-01-23T01:07:45.935Z,89.90
2019-01-23T01:10:19.143Z,90.40
2019-01-23T01:12:47.576Z,90.50
2019-01-23T01:15:15.945Z,90.50
2019-01-23T01:17:44.316Z,90.20
2019-01-23T01:20:15.311Z,90.20
2019-01-23T01:22:43.720Z,90.10
2019-01-23T01:25:14.427Z,89.80
2019-01-23T01:27:44.092Z,90.00
2019-01-23T01:30:15.911Z,89.80
2019-01-23T01:32:44.283Z,90.20
2019-01-23T01:35:12.655Z,90.40
2019-01-23T01:37:41.072Z,90.10
2019-01-23T01:40:12.565Z,90.20
2019-01-23T01:42:41.020Z,90.10
2019-01-23T01:45:10.747Z,89.90
2019-01-23T01:47:39.119Z,89.50
2019-01-23T01:50:11.019Z,89.60
2019-01-23T01:52:39.783Z,89.80
2019-01-23T01:55:09.495Z,89.80
2019-01-23T01:57:37.863Z,89.80
2019-01-23T02:00:09.523Z,90.00
2019-01-23T02:02:37.899Z,90.20
2019-01-23T02:05:07.103Z,90.10
2019-01-23T02:07:36.907Z,90.10
2019-01-23T02:10:08.820Z,90.20
2019-01-23T02:12:37.195Z,90.20
2019-01-23T02:15:08.055Z,89.90
2019-01-23T02:17:36.428Z,90.00
2019-01-23T02:20:08.063Z,90.10
2019-01-23T02:22:36.479Z,90.10
2019-01-23T02:25:06.570Z,90.00
2019-01-23T02:27:35.264Z,89.80
2019-01-23T02:30:08.595Z,88.80
2019-01-23T02:32:36.968Z,89.30
2019-01-23T02:35:07.474Z,89.60
2019-01-23T02:37:35.879Z,89.20
2019-01-23T02:40:06.659Z,89.20
2019-01-23T02:42:35.383Z,89.80
2019-01-23T02:45:05.128Z,89.90
2019-01-23T02:47:33.499Z,89.80
2019-01-23T02:50:01.871Z,89.10
2019-01-23T02:52:31.640Z,88.80
2019-01-23T02:55:00.016Z,89.30
2019-01-23T02:57:28.511Z,89.20
2019-01-23T02:59:56.932Z,89.10
2019-01-23T03:02:25.312Z,89.00
2019-01-23T03:04:54.003Z,89.10
2019-01-23T03:07:22.417Z,89.50
2019-01-23T03:09:50.787Z,90.00
2019-01-23T03:12:19.164Z,89.40
2019-01-23T03:14:47.584Z,88.70
2019-01-23T03:17:15.962Z,88.90
2019-01-23T03:19:44.603Z,88.70
2019-01-23T03:22:13.299Z,89.40
2019-01-23T03:24:41.676Z,89.00
2019-01-23T03:27:10.048Z,89.80
2019-01-23T03:29:39.436Z,90.10
2019-01-23T03:32:08.480Z,89.80
2019-01-23T03:34:37.188Z,89.70
2019-01-23T03:37:05.607Z,89.90
2019-01-23T03:39:33.991Z,89.80
2019-01-23T03:42:02.367Z,89.70
2019-01-23T03:44:30.778Z,89.20
2019-01-23T03:46:59.156Z,89.60
2019-01-23T03:49:27.882Z,90.00
2019-01-23T03:51:57.748Z,90.00
2019-01-23T03:54:26.126Z,90.20
2019-01-23T03:56:54.493Z,89.70
2019-01-23T03:59:22.904Z,90.10
2019-01-23T04:01:51.270Z,90.00
2019-01-23T04:04:19.635Z,90.10
2019-01-23T04:06:48.047Z,90.00
2019-01-23T04:09:16.419Z,90.00
2019-01-23T04:11:44.796Z,89.20
2019-01-23T04:14:14.360Z,89.40
2019-01-23T04:16:42.792Z,89.60
2019-01-23T04:19:11.535Z,90.10
2019-01-23T04:21:39.942Z,90.10
2019-01-23T04:24:08.311Z,90.30
2019-01-23T04:26:36.687Z,90.00
2019-01-23T04:29:05.093Z,89.60
2019-01-23T04:31:33.470Z,88.90
2019-01-23T04:34:03.578Z,88.80
2019-01-23T04:36:31.984Z,89.20
2019-01-23T04:39:00.355Z,89.60
2019-01-23T04:41:28.733Z,89.60
2019-01-23T04:43:57.153Z,89.80
2019-01-23T04:46:25.533Z,89.80
2019-01-23T04:48:53.900Z,89.10
2019-01-23T04:51:39.978Z,88.80
2019-01-23T04:54:09.328Z,89.00
2019-01-23T04:56:37.704Z,88.50
2019-01-23T04:59:06.115Z,88.80
2019-01-23T05:01:34.496Z,89.50
2019-01-23T05:04:02.860Z,89.40
2019-01-23T05:06:31.271Z,90.20
2019-01-23T05:08:59.696Z,89.60
2019-01-23T05:11:28.068Z,90.20
2019-01-23T05:13:57.768Z,90.20
2019-01-23T05:16:26.148Z,90.20
2019-01-23T05:18:54.863Z,90.10
2019-01-23T05:21:23.259Z,90.10
2019-01-23T05:23:51.635Z,89.60
2019-01-23T05:26:20.011Z,88.90
2019-01-23T05:28:48.432Z,89.40
2019-01-23T05:31:17.160Z,89.90
2019-01-23T05:33:45.536Z,89.40
2019-01-23T05:36:13.943Z,89.10
2019-01-23T05:38:42.620Z,89.00
2019-01-23T05:41:10.990Z,89.20
2019-01-23T05:43:39.683Z,88.70
2019-01-23T05:46:08.383Z,88.80
2019-01-23T05:48:36.753Z,89.10
2019-01-23T05:51:06.952Z,89.60
2019-01-23T05:53:35.438Z,90.20
2019-01-23T05:56:03.782Z,90.10
2019-01-23T05:58:32.201Z,90.20
2019-01-23T06:01:00.572Z,90.20
2019-01-23T06:03:28.937Z,90.40
2019-01-23T06:05:57.357Z,90.50
2019-01-23T06:08:25.727Z,90.50
2019-01-23T06:10:54.099Z,90.70
2019-01-23T06:13:23.220Z,90.60
2019-01-23T06:15:51.939Z,90.60
2019-01-23T06:18:20.363Z,90.60
2019-01-23T06:20:48.718Z,90.60
2019-01-23T06:23:17.091Z,90.60
2019-01-23T06:25:45.475Z,90.60
2019-01-23T06:28:13.926Z,90.50
2019-01-23T06:30:42.276Z,90.60
2019-01-23T06:33:10.649Z,90.80
2019-01-23T06:35:39.177Z,90.60
2019-01-23T06:38:08.824Z,90.40
2019-01-23T06:40:37.203Z,90.50
2019-01-23T06:43:05.612Z,90.60
2019-01-23T06:45:33.981Z,90.50
2019-01-23T06:48:02.663Z,90.40
2019-01-23T06:50:31.067Z,90.50
2019-01-23T06:52:59.436Z,90.40
2019-01-23T06:55:27.811Z,90.60
2019-01-23T06:57:56.976Z,90.50
2019-01-23T07:00:25.344Z,90.60
2019-01-23T07:02:53.719Z,90.40
2019-01-23T07:05:22.306Z,90.70
2019-01-23T07:07:50.695Z,90.60
2019-01-23T07:10:24.207Z,90.60
2019-01-23T07:12:52.940Z,90.60
2019-01-23T07:15:21.307Z,90.60
2019-01-23T07:17:49.685Z,90.60
2019-01-23T07:20:23.710Z,90.70
2019-01-23T07:22:52.078Z,90.40
2019-01-23T07:25:20.460Z,90.30
2019-01-23T07:27:48.874Z,90.30
2019-01-23T07:30:25.889Z,90.70
2019-01-23T07:32:54.295Z,90.30
2019-01-23T07:35:22.667Z,90.20
2019-01-23T07:37:51.039Z,90.40
2019-01-23T07:40:21.388Z,90.20
2019-01-23T07:42:49.762Z,89.70
2019-01-23T07:45:20.575Z,89.60
2019-01-23T07:47:49.000Z,88.70
2019-01-23T07:50:17.824Z,89.30
2019-01-23T07:52:46.195Z,89.30
2019-01-23T07:55:16.848Z,89.60
2019-01-23T07:57:45.218Z,89.50
2019-01-23T08:00:15.628Z,89.80
2019-01-23T08:02:44.035Z,89.60
2019-01-23T08:05:19.396Z,89.70
2019-01-23T08:07:44.872Z,89.60
2019-01-23T08:10:15.615Z,89.30
2019-01-23T08:12:44.115Z,89.70
2019-01-23T08:15:18.105Z,89.50
2019-01-23T08:17:48.054Z,88.90
2019-01-23T08:20:19.227Z,89.00
2019-01-23T08:22:47.885Z,88.70
2019-01-23T08:25:16.677Z,88.50
2019-01-23T08:27:45.058Z,88.50
2019-01-23T08:30:16.162Z,88.50
2019-01-23T08:32:44.898Z,88.40
2019-01-23T08:35:13.587Z,88.10
2019-01-23T08:37:42.271Z,88.40
2019-01-23T08:40:17.200Z,87.80
2019-01-23T08:42:46.623Z,87.80
2019-01-23T08:45:15.330Z,88.10
2019-01-23T08:47:43.753Z,87.80
2019-01-23T08:50:33.339Z,88.70
2019-01-23T08:53:01.767Z,88.40
2019-01-23T08:55:30.148Z,88.20
2019-01-23T08:57:58.536Z,88.30
2019-01-23T09:00:28.007Z,88.50
2019-01-23T09:02:56.387Z,87.80
2019-01-23T09:05:24.774Z,87.50
2019-01-23T09:07:53.179Z,86.60
2019-01-23T09:10:26.712Z,87.10
2019-01-23T09:12:55.088Z,87.70
2019-01-23T09:15:23.494Z,87.60
2019-01-23T09:17:51.863Z,88.00
2019-01-23T09:20:21.482Z,87.70
2019-01-23T09:22:49.891Z,87.50
2019-01-23T09:25:23.074Z,87.10
2019-01-23T09:27:51.457Z,86.50
2019-01-23T09:30:32.498Z,86.80
2019-01-23T09:33:04.515Z,86.10
2019-01-23T09:35:58.997Z,85.70
2019-01-23T09:38:33.637Z,84.50
2019-01-23T09:41:10.109Z,84.90
2019-01-23T09:44:05.627Z,86.20
2019-01-23T09:46:40.624Z,86.10
2019-01-23T09:49:20.872Z,85.00
2019-01-23T09:52:08.771Z,84.00
2019-01-23T09:54:37.147Z,84.80
2019-01-23T09:57:05.612Z,85.00
2019-01-23T09:59:34.980Z,85.00
2019-01-23T10:02:03.354Z,84.80
2019-01-23T10:04:32.055Z,84.80
2019-01-23T10:07:00.491Z,85.00
2019-01-23T10:09:28.851Z,85.40
2019-01-23T10:11:57.517Z,85.60
2019-01-23T10:14:27.427Z,85.60
2019-01-23T10:16:55.866Z,85.80
2019-01-23T10:19:24.237Z,85.90
2019-01-23T10:21:52.723Z,85.90
2019-01-23T10:24:21.472Z,86.30
2019-01-23T10:26:49.851Z,86.10
2019-01-23T10:29:18.286Z,86.60
2019-01-23T10:31:46.662Z,86.60
2019-01-23T10:34:15.027Z,87.10
2019-01-23T10:36:43.653Z,87.00
2019-01-23T10:39:12.028Z,87.40
2019-01-23T10:41:40.412Z,87.70
2019-01-23T10:44:08.820Z,88.00
2019-01-23T10:46:39.082Z,87.50
2019-01-23T10:49:07.466Z,86.80
2019-01-23T10:51:35.859Z,86.80
2019-01-23T10:54:04.232Z,86.50
2019-01-23T10:56:33.012Z,86.50
2019-01-23T10:59:02.689Z,86.80
2019-01-23T11:01:31.059Z,87.30
2019-01-23T11:03:59.434Z,87.50
2019-01-23T11:06:27.845Z,87.10
2019-01-23T11:08:56.595Z,87.70
2019-01-23T11:11:25.252Z,87.50
2019-01-23T11:13:53.685Z,87.60
2019-01-23T11:16:22.056Z,87.10
2019-01-23T11:18:50.428Z,87.50
2019-01-23T11:21:19.375Z,87.20
2019-01-23T11:23:47.895Z,87.00
2019-01-23T11:26:16.268Z,86.60
2019-01-23T11:28:45.060Z,86.40
2019-01-23T11:31:20.190Z,85.40
2019-01-23T11:33:43.767Z,85.40
2019-01-23T11:36:12.236Z,85.00
2019-01-23T11:38:40.675Z,84.50
2019-01-23T11:41:09.068Z,84.50
2019-01-23T11:43:37.479Z,84.50
2019-01-23T11:46:05.856Z,84.50
2019-01-23T11:48:35.290Z,83.70
2019-01-23T11:51:03.723Z,84.80
2019-01-23T11:53:32.091Z,85.30
2019-01-23T11:56:00.471Z,84.80
2019-01-23T11:58:29.342Z,85.00
2019-01-23T12:00:57.715Z,84.70
2019-01-23T12:03:26.412Z,85.30
2019-01-23T12:05:55.104Z,85.10
2019-01-23T12:08:23.820Z,83.90
2019-01-23T12:10:52.240Z,84.30
2019-01-23T12:13:20.611Z,84.50
2019-01-23T12:15:48.986Z,84.20
2019-01-23T12:18:17.738Z,83.90
2019-01-23T12:20:46.408Z,84.00
2019-01-23T12:23:14.786Z,84.10
2019-01-23T12:25:43.696Z,84.10
2019-01-23T12:28:12.117Z,84.60
2019-01-23T12:30:40.487Z,85.10
2019-01-23T12:33:08.867Z,84.20
2019-01-23T12:35:37.271Z,83.70
2019-01-23T12:38:05.648Z,84.40
2019-01-23T12:40:34.287Z,84.60
2019-01-23T12:43:03.173Z,84.80
2019-01-23T12:45:31.670Z,84.40
2019-01-23T12:48:00.479Z,84.10
2019-01-23T12:50:32.096Z,84.20
2019-01-23T12:53:00.480Z,83.80
2019-01-23T12:55:28.917Z,83.00
2019-01-23T12:57:57.383Z,83.40
2019-01-23T13:00:28.009Z,84.00
2019-01-23T13:02:56.384Z,84.00
2019-01-23T13:05:25.712Z,84.10
2019-01-23T13:07:54.079Z,83.90
2019-01-23T13:10:23.898Z,84.20
2019-01-23T13:12:53.257Z,83.50
2019-01-23T13:15:23.567Z,83.70
2019-01-23T13:17:51.940Z,83.90
2019-01-23T13:20:22.562Z,82.90
2019-01-23T13:22:51.251Z,83.60
2019-01-23T13:25:22.031Z,83.00
2019-01-23T13:27:51.154Z,82.70
2019-01-23T13:30:21.448Z,83.70
2019-01-23T13:32:50.127Z,85.10
2019-01-23T13:35:21.193Z,86.10
2019-01-23T13:37:49.555Z,86.20
2019-01-23T13:40:23.263Z,87.20
2019-01-23T13:42:51.932Z,86.50
2019-01-23T13:45:20.303Z,87.30
2019-01-23T13:47:48.676Z,87.30
2019-01-23T13:50:18.155Z,87.40
2019-01-23T13:52:47.506Z,87.20
2019-01-23T13:55:20.636Z,86.90
2019-01-23T13:57:49.059Z,87.20
2019-01-23T14:00:34.867Z,86.90
2019-01-23T14:03:04.051Z,86.70
2019-01-23T14:05:32.748Z,86.60
2019-01-23T14:08:01.123Z,87.30
2019-01-23T14:10:30.481Z,86.60
2019-01-23T14:12:58.911Z,86.80
2019-01-23T14:15:32.711Z,86.60
2019-01-23T14:18:01.122Z,86.90
2019-01-23T14:20:29.502Z,86.40
2019-01-23T14:22:57.880Z,87.40
2019-01-23T14:25:26.290Z,88.30
2019-01-23T14:27:54.771Z,88.50
2019-01-23T14:30:32.406Z,88.20
2019-01-23T14:33:00.781Z,87.70
2019-01-23T14:35:29.992Z,87.70
2019-01-23T14:40:40.712Z,88.00
2019-01-23T14:43:09.079Z,88.20
2019-01-23T14:45:37.452Z,88.10
2019-01-23T14:48:06.206Z,88.50
2019-01-23T14:50:34.576Z,88.70
2019-01-23T14:53:03.808Z,88.40
2019-01-23T14:55:32.211Z,88.20
2019-01-23T14:58:00.579Z,88.10
2019-01-23T15:00:32.975Z,88.00
2019-01-23T15:03:01.388Z,88.60
2019-01-23T15:05:29.759Z,88.40
2019-01-23T15:07:58.135Z,88.20
2019-01-23T15:10:28.682Z,88.20
2019-01-23T15:12:57.055Z,88.20
2019-01-23T15:15:25.543Z,87.90
2019-01-23T15:17:54.534Z,87.70
2019-01-23T15:20:34.876Z,87.70
2019-01-23T15:23:03.630Z,88.20
2019-01-23T15:25:32.360Z,87.70
2019-01-23T15:28:00.724Z,87.20
2019-01-23T15:30:29.160Z,87.10
2019-01-23T15:32:57.508Z,87.50
2019-01-23T15:35:26.199Z,87.50
2019-01-23T15:37:54.603Z,87.50
2019-01-23T15:40:29.208Z,87.90
2019-01-23T15:42:57.576Z,88.20
2019-01-23T15:45:31.807Z,88.40
2019-01-23T15:48:00.316Z,88.70
2019-01-23T15:50:28.980Z,89.00
2019-01-23T15:52:57.385Z,89.20
2019-01-23T15:55:26.263Z,89.60
2019-01-23T15:57:54.627Z,89.80
2019-01-23T16:00:32.593Z,90.00
2019-01-23T16:03:01.332Z,90.10
2019-01-23T16:05:29.708Z,90.20
2019-01-23T16:07:58.791Z,90.20
2019-01-23T16:10:28.420Z,90.40
2019-01-23T16:12:56.787Z,90.40
2019-01-23T16:15:26.740Z,90.40
2019-01-23T16:17:55.112Z,90.40
2019-01-23T16:20:24.011Z,90.20
2019-01-23T16:22:53.719Z,90.10
2019-01-23T16:25:22.087Z,90.20
2019-01-23T16:27:50.460Z,90.20
2019-01-23T16:30:27.804Z,90.30
2019-01-23T16:32:56.188Z,90.50
2019-01-23T16:35:24.559Z,90.60
2019-01-23T16:37:52.972Z,90.60
2019-01-23T16:40:21.348Z,90.60
2019-01-23T16:42:49.721Z,90.70
2019-01-23T16:45:20.083Z,90.80
2019-01-23T16:47:48.460Z,90.80
2019-01-23T16:50:22.786Z,90.80
2019-01-23T16:52:51.503Z,91.00
2019-01-23T16:55:20.299Z,91.10
2019-01-23T16:57:50.940Z,91.10
2019-01-23T17:00:24.530Z,91.10
2019-01-23T17:02:54.932Z,90.90
2019-01-23T17:05:31.072Z,91.10
2019-01-23T17:08:00.633Z,91.10
2019-01-23T17:10:29.396Z,91.10
2019-01-23T17:12:57.831Z,91.20
2019-01-23T17:15:26.311Z,91.10
2019-01-23T17:17:54.692Z,91.00
2019-01-23T17:20:36.023Z,91.10
2019-01-23T17:23:04.955Z,91.10
2019-01-23T17:25:33.643Z,91.20
2019-01-23T17:28:02.340Z,91.30
2019-01-23T17:30:30.721Z,91.50
2019-01-23T17:32:59.096Z,92.60
2019-01-23T17:35:27.512Z,91.60
2019-01-23T17:37:55.884Z,91.80
2019-01-23T17:40:24.990Z,91.80
2019-01-23T17:42:55.877Z,91.90
2019-01-23T17:45:32.772Z,91.90
2019-01-23T17:48:01.635Z,91.90
2019-01-23T17:50:30.028Z,91.60
2019-01-23T17:52:58.755Z,91.90
2019-01-23T17:55:32.580Z,92.10
2019-01-23T17:58:01.788Z,92.10
2019-01-23T18:00:40.138Z,91.90
2019-01-23T18:03:08.575Z,91.90
2019-01-23T18:05:36.944Z,91.90
2019-01-23T18:08:05.367Z,91.90
2019-01-23T18:10:33.746Z,92.00
2019-01-23T18:13:02.289Z,91.90
2019-01-23T18:15:33.607Z,91.90
2019-01-23T18:18:01.975Z,91.90
2019-01-23T18:20:30.349Z,92.00
2019-01-23T18:22:59.832Z,92.00
2019-01-23T18:25:28.198Z,92.10
2019-01-23T18:27:56.571Z,92.40
2019-01-23T18:30:31.307Z,92.40
2019-01-23T18:33:00.922Z,92.50
2019-01-23T18:36:01.839Z,92.40
2019-01-23T18:38:36.513Z,92.20
2019-01-23T18:41:25.588Z,92.20
2019-01-23T18:44:09.199Z,92.70
2019-01-23T18:46:55.996Z,92.30
2019-01-23T18:49:36.021Z,92.10
2019-01-23T18:52:13.452Z,91.80
2019-01-23T18:54:42.972Z,91.70
2019-01-23T18:57:15.112Z,91.60
2019-01-23T18:59:43.483Z,91.50
2019-01-23T19:02:13.579Z,91.70
2019-01-23T19:04:41.988Z,91.70
2019-01-23T19:07:10.355Z,91.50
2019-01-23T19:09:38.728Z,91.60
2019-01-23T19:12:07.133Z,91.90
2019-01-23T19:14:35.507Z,92.00
2019-01-23T19:17:03.884Z,92.00
2019-01-23T19:19:33.253Z,91.90
2019-01-23T19:22:01.636Z,92.00
2019-01-23T19:24:29.999Z,92.20
2019-01-23T19:26:58.403Z,92.20
2019-01-23T19:29:26.780Z,92.20
2019-01-23T19:31:55.584Z,92.20
2019-01-23T19:34:24.065Z,92.30
2019-01-23T19:36:52.448Z,92.30
2019-01-23T19:39:20.820Z,92.10
2019-01-23T19:41:49.616Z,92.50
2019-01-23T19:44:17.996Z,92.40
2019-01-23T19:46:46.364Z,92.40
2019-01-23T19:49:14.786Z,92.30
2019-01-23T19:51:43.492Z,92.30
2019-01-23T19:54:12.209Z,92.30
2019-01-23T19:56:40.632Z,92.20
2019-01-23T19:59:09.114Z,92.20
2019-01-23T20:01:37.491Z,91.90
2019-01-23T20:04:07.627Z,91.50
2019-01-23T20:06:36.000Z,91.70
2019-01-23T20:09:07.188Z,91.60
2019-01-23T20:11:35.875Z,91.60
2019-01-23T20:14:04.414Z,91.70
2019-01-23T20:16:32.789Z,91.80
2019-01-23T20:19:02.936Z,91.80
2019-01-23T20:21:31.306Z,91.80
2019-01-23T20:23:59.674Z,91.70
2019-01-23T20:26:28.904Z,91.70
2019-01-23T20:28:57.276Z,91.70
2019-01-23T20:31:25.651Z,91.90
2019-01-23T20:33:54.059Z,91.30
2019-01-23T20:36:22.444Z,91.10
2019-01-23T20:38:51.160Z,91.10
2019-01-23T20:41:19.571Z,90.60
2019-01-23T20:43:47.944Z,90.80
2019-01-23T20:46:16.319Z,90.80
2019-01-23T20:48:45.375Z,90.70
2019-01-23T20:51:13.749Z,90.80
2019-01-23T20:53:42.178Z,90.90
2019-01-23T20:56:10.542Z,91.00
2019-01-23T20:58:38.917Z,91.50
2019-01-23T21:01:07.283Z,90.90
2019-01-23T21:03:35.759Z,91.30
2019-01-23T21:06:04.999Z,90.90
2019-01-23T21:08:33.366Z,91.00
2019-01-23T21:11:02.527Z,91.10
2019-01-23T21:13:31.016Z,91.10
2019-01-23T21:15:59.676Z,91.20
2019-01-23T21:18:28.487Z,91.30
2019-01-23T21:20:56.863Z,91.50
2019-01-23T21:23:25.235Z,91.70
2019-01-23T21:25:53.659Z,91.70
2019-01-23T21:28:22.032Z,91.80
2019-01-23T21:30:50.405Z,91.80
2019-01-23T21:33:19.647Z,91.80
2019-01-23T21:35:48.019Z,91.70
2019-01-23T21:38:16.400Z,91.70
2019-01-23T21:40:44.811Z,91.70
2019-01-23T21:43:13.210Z,91.70
2019-01-23T21:45:41.563Z,91.90
2019-01-23T21:48:10.388Z,91.90
2019-01-23T21:50:38.762Z,91.80
2019-01-23T21:53:07.131Z,91.90
2019-01-23T21:55:36.443Z,91.90
2019-01-23T21:58:04.955Z,91.90
2019-01-23T22:00:39.102Z,91.80
2019-01-23T22:03:09.151Z,91.80
2019-01-23T22:05:37.873Z,91.80
2019-01-23T22:08:08.162Z,91.90
2019-01-23T22:10:36.576Z,91.90
2019-01-23T22:13:05.015Z,92.30
2019-01-23T22:15:33.924Z,92.00
2019-01-23T22:18:03.232Z,91.90
2019-01-23T22:20:31.604Z,91.90
2019-01-23T22:22:59.983Z,92.00
2019-01-23T22:25:28.391Z,92.20
2019-01-23T22:27:56.763Z,92.20
2019-01-23T22:30:27.484Z,92.20
2019-01-23T22:32:55.893Z,92.20
2019-01-23T22:35:24.267Z,92.10
2019-01-23T22:37:52.991Z,92.00
2019-01-23T22:40:22.398Z,92.30
2019-01-23T22:42:50.798Z,91.90
2019-01-23T22:45:20.869Z,92.00
2019-01-23T22:47:49.355Z,92.00
2019-01-23T22:50:25.931Z,92.00
2019-01-23T22:52:54.655Z,91.80
2019-01-23T22:55:23.022Z,91.70
2019-01-23T22:57:51.403Z,91.60
2019-01-23T23:00:31.124Z,91.60
2019-01-23T23:03:00.464Z,91.50
2019-01-23T23:05:28.838Z,91.50
2019-01-23T23:07:57.535Z,91.60
2019-01-23T23:10:27.663Z,91.50
2019-01-23T23:12:56.037Z,91.50
2019-01-23T23:15:24.438Z,91.60
2019-01-23T23:17:53.116Z,91.70
2019-01-23T23:20:21.492Z,91.50
2019-01-23T23:22:51.385Z,91.50
2019-01-23T23:25:19.751Z,91.50
2019-01-23T23:27:48.128Z,91.50
2019-01-23T23:30:21.367Z,91.40
2019-01-23T23:32:49.745Z,91.40
2019-01-23T23:35:18.484Z,91.40
2019-01-23T23:37:46.883Z,91.40
2019-01-23T23:40:16.031Z,91.40
2019-01-23T23:42:44.407Z,91.50
2019-01-23T23:45:16.651Z,91.50
2019-01-23T23:47:45.019Z,91.50
2019-01-23T23:50:14.835Z,91.30
2019-01-23T23:52:43.248Z,91.10
2019-01-23T23:55:15.675Z,91.00
2019-01-23T23:57:44.043Z,91.20
